createdAt,value
2022-08-19T00:01:54.613Z,20.36
2022-08-19T00:04:29.304Z,20.46
2022-08-19T00:06:56.287Z,20.57
2022-08-19T00:09:25.189Z,20.50
2022-08-19T00:11:54.441Z,20.49
2022-08-19T00:14:21.957Z,20.56
2022-08-19T00:16:50.378Z,20.70
2022-08-19T00:19:18.273Z,20.79
2022-08-19T00:21:45.157Z,20.77
2022-08-19T00:24:16.083Z,20.69
2022-08-19T00:26:44.920Z,20.59
2022-08-19T00:29:15.246Z,20.52
2022-08-19T00:31:44.270Z,20.49
2022-08-19T00:34:13.579Z,20.41
2022-08-19T00:36:42.287Z,20.34
2022-08-19T00:39:10.631Z,20.32
2022-08-19T00:41:38.123Z,20.34
2022-08-19T00:44:28.087Z,20.34
2022-08-19T00:46:59.218Z,20.33
2022-08-19T00:49:44.663Z,20.24
2022-08-19T00:52:22.216Z,20.23
2022-08-19T00:54:52.678Z,20.22
2022-08-19T00:57:31.677Z,20.21
2022-08-19T01:00:03.144Z,20.17
2022-08-19T01:02:33.264Z,20.12
2022-08-19T01:05:08.925Z,20.20
2022-08-19T01:07:39.864Z,20.14
2022-08-19T01:10:13.951Z,20.17
2022-08-19T01:12:42.015Z,20.18
2022-08-19T01:15:13.345Z,20.18
2022-08-19T01:17:42.754Z,20.15
2022-08-19T01:20:21.002Z,20.22
2022-08-19T01:22:55.632Z,20.23
2022-08-19T01:25:40.515Z,20.18
2022-08-19T01:28:10.628Z,20.07
2022-08-19T01:30:39.012Z,20.02
2022-08-19T01:33:11.783Z,20.01
2022-08-19T01:35:38.578Z,19.92
2022-08-19T01:38:11.680Z,19.84
2022-08-19T01:40:40.971Z,19.81
2022-08-19T01:43:08.008Z,19.80
2022-08-19T01:45:36.405Z,19.78
2022-08-19T01:48:04.432Z,19.75
2022-08-19T01:50:33.906Z,19.74
2022-08-19T01:53:06.618Z,19.75
2022-08-19T01:55:41.030Z,19.77
2022-08-19T01:58:21.443Z,19.75
2022-08-19T02:00:48.843Z,19.78
2022-08-19T02:03:17.222Z,19.76
2022-08-19T02:05:46.704Z,19.75
2022-08-19T02:08:14.090Z,19.68
2022-08-19T02:10:44.634Z,19.58
2022-08-19T02:13:14.412Z,19.56
2022-08-19T02:15:42.168Z,19.56
2022-08-19T02:18:09.820Z,19.52
2022-08-19T02:20:38.208Z,19.50
2022-08-19T02:23:05.923Z,19.53
2022-08-19T02:25:41.665Z,19.56
2022-08-19T02:28:09.204Z,19.54
2022-08-19T02:30:36.092Z,19.58
2022-08-19T02:33:02.905Z,19.54
2022-08-19T02:35:29.611Z,19.56
2022-08-19T02:38:15.249Z,19.55
2022-08-19T02:40:50.495Z,19.50
2022-08-19T02:43:17.412Z,19.49
2022-08-19T02:45:44.416Z,19.50
2022-08-19T02:48:17.917Z,19.53
2022-08-19T02:50:58.555Z,19.51
2022-08-19T02:53:28.382Z,19.56
2022-08-19T02:55:56.795Z,19.54
2022-08-19T02:58:25.103Z,19.52
2022-08-19T03:00:57.165Z,19.53
2022-08-19T03:03:24.597Z,19.55
2022-08-19T03:05:56.872Z,19.55
2022-08-19T03:08:26.857Z,19.57
2022-08-19T03:10:55.005Z,19.55
2022-08-19T03:13:22.634Z,19.51
2022-08-19T03:15:50.086Z,19.54
2022-08-19T03:18:18.392Z,19.58
2022-08-19T03:20:49.989Z,19.57
2022-08-19T03:23:17.972Z,19.53
2022-08-19T03:26:03.934Z,19.48
2022-08-19T03:28:35.768Z,19.43
2022-08-19T03:31:42.121Z,19.43
2022-08-19T03:33:57.015Z,19.45
2022-08-19T03:36:29.478Z,19.48
2022-08-19T03:39:01.042Z,19.44
2022-08-19T03:41:44.919Z,19.44
2022-08-19T03:44:22.652Z,19.43
2022-08-19T03:46:56.173Z,19.40
2022-08-19T03:49:28.181Z,19.44
2022-08-19T03:51:58.791Z,19.46
2022-08-19T03:54:27.296Z,19.43
2022-08-19T03:56:57.325Z,19.41
2022-08-19T03:59:30.403Z,19.36
2022-08-19T04:02:01.135Z,19.36
2022-08-19T04:04:29.778Z,19.36
2022-08-19T04:06:59.696Z,19.37
2022-08-19T04:09:27.020Z,19.38
2022-08-19T04:11:57.878Z,19.37
2022-08-19T04:14:32.984Z,19.34
2022-08-19T04:17:02.158Z,19.36
2022-08-19T04:19:31.841Z,19.37
2022-08-19T04:21:59.564Z,19.36
2022-08-19T04:24:26.710Z,19.42
2022-08-19T04:26:54.048Z,19.42
2022-08-19T04:29:26.517Z,19.43
2022-08-19T04:31:57.229Z,19.48
2022-08-19T04:34:28.171Z,19.50
2022-08-19T04:36:58.188Z,19.50
2022-08-19T04:39:49.901Z,19.53
2022-08-19T04:42:38.265Z,19.57
2022-08-19T04:45:12.627Z,19.58
2022-08-19T04:47:48.149Z,19.59
2022-08-19T04:50:27.028Z,19.62
2022-08-19T04:52:54.258Z,19.70
2022-08-19T04:55:21.291Z,19.77
2022-08-19T04:57:48.543Z,19.82
2022-08-19T05:00:15.709Z,19.81
2022-08-19T05:02:43.535Z,19.86
2022-08-19T05:05:10.721Z,19.91
2022-08-19T05:07:37.772Z,19.94
2022-08-19T05:10:07.575Z,19.94
2022-08-19T05:12:34.771Z,19.95
2022-08-19T05:15:04.220Z,20.06
2022-08-19T05:17:36.023Z,20.05
2022-08-19T05:20:27.433Z,20.11
2022-08-19T05:22:54.893Z,20.21
2022-08-19T05:25:23.277Z,20.30
2022-08-19T05:27:50.483Z,20.42
2022-08-19T05:30:18.511Z,20.43
2022-08-19T05:32:45.592Z,20.48
2022-08-19T05:35:12.998Z,20.51
2022-08-19T05:37:43.846Z,20.39
2022-08-19T05:40:11.464Z,20.27
2022-08-19T05:42:39.857Z,20.31
2022-08-19T05:45:08.177Z,20.41
2022-08-19T05:47:36.027Z,20.35
2022-08-19T05:50:09.250Z,20.40
2022-08-19T05:52:39.286Z,20.43
2022-08-19T05:55:11.438Z,20.44
2022-08-19T05:57:38.368Z,20.51
2022-08-19T06:00:11.059Z,20.50
2022-08-19T06:02:37.964Z,20.49
2022-08-19T06:05:10.548Z,20.43
2022-08-19T06:07:39.940Z,20.41
2022-08-19T06:10:11.707Z,20.42
2022-08-19T06:12:38.998Z,20.52
2022-08-19T06:15:13.072Z,20.50
2022-08-19T06:17:40.612Z,20.52
2022-08-19T06:20:14.564Z,20.54
2022-08-19T06:22:47.494Z,20.56
2022-08-19T06:25:16.294Z,20.67
2022-08-19T06:28:11.388Z,20.71
2022-08-19T06:30:30.939Z,20.74
2022-08-19T06:32:57.976Z,20.83
2022-08-19T06:35:24.906Z,20.90
2022-08-19T06:37:51.996Z,20.96
2022-08-19T06:40:18.980Z,20.88
2022-08-19T06:42:54.821Z,20.95
2022-08-19T06:45:25.017Z,21.01
2022-08-19T06:48:01.952Z,21.01
2022-08-19T06:50:28.660Z,21.05
2022-08-19T06:52:55.617Z,21.14
2022-08-19T06:55:22.827Z,21.20
2022-08-19T06:57:54.479Z,21.25
2022-08-19T07:00:21.619Z,21.25
2022-08-19T07:02:53.383Z,21.36
2022-08-19T07:05:24.267Z,21.35
2022-08-19T07:07:51.244Z,21.48
2022-08-19T07:10:19.346Z,21.54
2022-08-19T07:12:46.591Z,21.56
2022-08-19T07:15:13.635Z,21.55
2022-08-19T07:17:41.912Z,21.43
2022-08-19T07:20:10.987Z,21.50
2022-08-19T07:22:40.796Z,21.67
2022-08-19T07:25:10.450Z,21.69
2022-08-19T07:27:39.736Z,21.75
2022-08-19T07:30:14.459Z,21.79
2022-08-19T07:32:41.673Z,21.74
2022-08-19T07:35:10.351Z,21.85
2022-08-19T07:37:38.225Z,21.93
2022-08-19T07:40:08.654Z,21.98
2022-08-19T07:42:35.560Z,22.04
2022-08-19T07:45:02.536Z,22.05
2022-08-19T07:47:47.748Z,22.14
2022-08-19T07:50:17.530Z,22.01
2022-08-19T07:52:45.737Z,22.03
2022-08-19T07:55:41.997Z,22.05
2022-08-19T07:58:06.182Z,22.12
2022-08-19T08:00:33.475Z,22.28
2022-08-19T08:03:00.477Z,22.34
2022-08-19T08:05:45.819Z,22.33
2022-08-19T08:08:32.537Z,22.30
2022-08-19T08:11:01.037Z,22.23
2022-08-19T08:13:28.935Z,22.19
2022-08-19T08:15:57.859Z,22.22
2022-08-19T08:18:27.520Z,22.20
2022-08-19T08:20:57.708Z,22.20
2022-08-19T08:23:26.603Z,22.25
2022-08-19T08:25:57.761Z,22.24
2022-08-19T08:28:29.757Z,22.30
2022-08-19T08:30:58.782Z,22.29
2022-08-19T08:33:33.926Z,22.37
2022-08-19T08:36:09.060Z,22.32
2022-08-19T08:38:40.323Z,22.40
2022-08-19T08:41:41.994Z,22.30
2022-08-19T08:44:21.922Z,22.37
2022-08-19T08:47:02.597Z,22.46
2022-08-19T08:49:48.096Z,22.42
2022-08-19T08:52:36.311Z,22.43
2022-08-19T08:55:13.734Z,22.37
2022-08-19T08:58:00.030Z,22.36
2022-08-19T09:00:39.173Z,22.30
2022-08-19T09:03:21.089Z,22.27
2022-08-19T09:06:01.801Z,22.22
2022-08-19T09:08:50.580Z,22.25
2022-08-19T09:11:57.634Z,22.42
2022-08-19T09:14:54.374Z,22.40
2022-08-19T09:17:31.917Z,22.26
2022-08-19T09:20:26.312Z,22.20
2022-08-19T09:22:53.259Z,22.18
2022-08-19T09:25:26.680Z,22.13
2022-08-19T09:28:05.926Z,22.09
2022-08-19T09:30:53.069Z,22.22
2022-08-19T09:33:20.686Z,22.27
2022-08-19T09:35:53.270Z,22.39
2022-08-19T09:38:22.242Z,22.47
2022-08-19T09:40:50.928Z,22.55
2022-08-19T09:43:33.176Z,22.54
2022-08-19T09:46:02.536Z,22.32
2022-08-19T09:48:29.328Z,22.35
2022-08-19T09:50:56.376Z,22.60
2022-08-19T09:53:25.340Z,22.83
2022-08-19T09:55:55.606Z,22.66
2022-08-19T09:58:26.767Z,22.48
2022-08-19T10:00:54.772Z,22.49
2022-08-19T10:03:25.494Z,22.48
2022-08-19T10:06:00.492Z,22.51
2022-08-19T10:08:32.365Z,22.47
2022-08-19T10:10:59.436Z,22.48
2022-08-19T10:13:46.958Z,22.45
2022-08-19T10:16:19.772Z,22.60
2022-08-19T10:18:49.645Z,22.71
2022-08-19T10:21:32.067Z,22.69
2022-08-19T10:24:06.251Z,22.67
2022-08-19T10:26:42.635Z,22.48
2022-08-19T10:29:10.713Z,22.22
2022-08-19T10:32:01.033Z,22.02
2022-08-19T10:34:27.860Z,22.03
2022-08-19T10:37:01.029Z,22.08
2022-08-19T10:39:32.664Z,22.06
2022-08-19T10:42:14.777Z,22.02
2022-08-19T10:44:43.139Z,22.04
2022-08-19T10:47:24.499Z,22.13
2022-08-19T10:50:12.655Z,22.10
2022-08-19T10:52:49.810Z,22.04
2022-08-19T10:55:41.763Z,22.11
2022-08-19T10:58:27.298Z,22.24
2022-08-19T11:00:59.922Z,22.22
2022-08-19T11:03:30.726Z,22.12
2022-08-19T11:06:09.920Z,22.08
2022-08-19T11:08:38.731Z,22.10
2022-08-19T11:11:08.535Z,22.03
2022-08-19T11:13:39.482Z,22.02
2022-08-19T11:16:10.915Z,21.97
2022-08-19T11:18:44.426Z,21.93
2022-08-19T11:21:21.328Z,21.97
2022-08-19T11:23:52.191Z,22.00
2022-08-19T11:26:21.891Z,21.98
2022-08-19T11:28:51.794Z,21.93
2022-08-19T11:31:24.008Z,22.04
2022-08-19T11:34:04.003Z,22.07
2022-08-19T11:36:33.528Z,22.10
2022-08-19T11:39:00.910Z,22.12
2022-08-19T11:41:28.786Z,22.13
2022-08-19T11:43:56.226Z,22.16
2022-08-19T11:46:27.081Z,22.10
2022-08-19T11:48:53.923Z,22.14
2022-08-19T11:51:25.604Z,22.16
2022-08-19T11:53:55.791Z,22.19
2022-08-19T11:56:25.012Z,22.16
2022-08-19T11:58:54.162Z,22.12
2022-08-19T12:01:24.783Z,22.14
2022-08-19T12:03:55.635Z,22.18
2022-08-19T12:06:31.095Z,22.29
2022-08-19T12:09:05.727Z,22.26
2022-08-19T12:11:34.722Z,22.28
2022-08-19T12:14:02.205Z,22.26
2022-08-19T12:16:31.691Z,22.30
2022-08-19T12:19:04.976Z,22.34
2022-08-19T12:21:35.708Z,22.41
2022-08-19T12:24:05.726Z,22.41
2022-08-19T12:26:33.990Z,22.46
2022-08-19T12:29:04.932Z,22.60
2022-08-19T12:31:32.738Z,22.65
2022-08-19T12:33:59.886Z,22.55
2022-08-19T12:36:26.610Z,22.49
2022-08-19T12:38:54.207Z,22.49
2022-08-19T12:41:23.315Z,22.46
2022-08-19T12:43:51.700Z,22.43
2022-08-19T12:46:22.637Z,22.59
2022-08-19T12:48:55.290Z,22.77
2022-08-19T12:51:22.658Z,22.66
2022-08-19T12:53:50.844Z,22.68
2022-08-19T12:56:22.860Z,22.65
2022-08-19T12:58:52.932Z,22.79
2022-08-19T13:01:23.201Z,22.67
2022-08-19T13:03:53.050Z,22.70
2022-08-19T13:06:20.160Z,22.72
2022-08-19T13:08:47.637Z,22.69
2022-08-19T13:11:19.913Z,22.55
2022-08-19T13:13:51.355Z,22.46
2022-08-19T13:16:21.217Z,22.38
2022-08-19T13:18:49.100Z,22.39
2022-08-19T13:21:16.769Z,22.45
2022-08-19T13:23:43.706Z,22.60
2022-08-19T13:26:13.806Z,22.73
2022-08-19T13:29:01.212Z,22.77
2022-08-19T13:31:52.590Z,22.84
2022-08-19T13:34:29.634Z,22.82
2022-08-19T13:36:59.637Z,22.94
2022-08-19T13:39:26.556Z,22.77
2022-08-19T13:41:53.310Z,22.66
2022-08-19T13:44:21.322Z,22.67
2022-08-19T13:46:54.120Z,22.62
2022-08-19T13:49:21.563Z,22.52
2022-08-19T13:51:48.483Z,22.52
2022-08-19T13:54:15.327Z,22.38
2022-08-19T13:56:45.792Z,22.26
2022-08-19T13:59:14.072Z,22.19
2022-08-19T14:01:42.245Z,22.22
2022-08-19T14:04:09.312Z,22.38
2022-08-19T14:06:36.183Z,22.49
2022-08-19T14:09:03.946Z,22.72
2022-08-19T14:11:31.054Z,22.78
2022-08-19T14:13:57.856Z,22.95
2022-08-19T14:16:25.584Z,23.06
2022-08-19T14:18:52.535Z,23.18
2022-08-19T14:21:24.625Z,23.05
2022-08-19T14:23:51.967Z,23.16
2022-08-19T14:26:20.745Z,23.25
2022-08-19T14:28:48.189Z,23.50
2022-08-19T14:31:19.814Z,23.37
2022-08-19T14:33:51.410Z,23.31
2022-08-19T14:36:21.955Z,23.35
2022-08-19T14:38:49.923Z,23.28
2022-08-19T14:41:24.641Z,23.27
2022-08-19T14:43:53.772Z,23.23
2022-08-19T14:46:26.260Z,23.24
2022-08-19T14:48:57.344Z,23.31
2022-08-19T14:51:30.100Z,23.36
2022-08-19T14:53:57.104Z,23.18
2022-08-19T14:56:29.029Z,23.19
2022-08-19T14:59:00.159Z,23.12
2022-08-19T15:01:27.468Z,22.92
2022-08-19T15:03:55.659Z,22.88
2022-08-19T15:06:25.213Z,22.89
2022-08-19T15:08:52.785Z,22.75
2022-08-19T15:11:24.485Z,22.75
2022-08-19T15:13:52.533Z,22.56
2022-08-19T15:16:21.173Z,22.46
2022-08-19T15:18:52.320Z,22.38
2022-08-19T15:21:27.213Z,22.28
2022-08-19T15:23:59.645Z,22.20
2022-08-19T15:26:29.105Z,22.10
2022-08-19T15:28:55.848Z,22.03
2022-08-19T15:31:27.942Z,22.03
2022-08-19T15:33:58.535Z,22.01
2022-08-19T15:36:26.264Z,22.06
2022-08-19T15:38:53.443Z,21.99
2022-08-19T15:41:25.200Z,21.91
2022-08-19T15:44:04.510Z,21.91
2022-08-19T15:46:34.900Z,21.93
2022-08-19T15:49:02.572Z,21.87
2022-08-19T15:51:33.096Z,21.81
2022-08-19T15:54:00.658Z,21.96
2022-08-19T15:56:57.440Z,21.89
2022-08-19T15:59:47.510Z,21.87
2022-08-19T16:02:37.055Z,21.83
2022-08-19T16:05:28.266Z,21.83
2022-08-19T16:07:56.170Z,21.79
2022-08-19T16:10:27.147Z,21.71
2022-08-19T16:12:57.557Z,21.67
2022-08-19T16:15:30.661Z,21.65
2022-08-19T16:17:58.750Z,21.66
2022-08-19T16:20:27.828Z,21.63
2022-08-19T16:22:58.375Z,21.64
2022-08-19T16:25:29.250Z,21.70
2022-08-19T16:28:06.284Z,21.67
2022-08-19T16:30:37.843Z,21.67
2022-08-19T16:33:04.729Z,21.63
2022-08-19T16:35:31.578Z,21.65
2022-08-19T16:37:58.269Z,21.69
2022-08-19T16:40:25.235Z,21.60
2022-08-19T16:42:53.674Z,21.47
2022-08-19T16:45:21.934Z,21.32
2022-08-19T16:47:48.678Z,21.30
2022-08-19T16:50:21.964Z,21.26
2022-08-19T16:52:52.262Z,21.20
2022-08-19T16:55:21.220Z,21.16
2022-08-19T16:57:48.008Z,21.17
2022-08-19T17:00:15.794Z,21.14
2022-08-19T17:02:42.504Z,21.12
2022-08-19T17:05:10.211Z,21.07
2022-08-19T17:07:36.952Z,21.06
2022-08-19T17:10:05.992Z,21.03
2022-08-19T17:12:32.743Z,21.01
2022-08-19T17:15:02.218Z,20.97
2022-08-19T17:17:31.936Z,20.97
2022-08-19T17:20:02.665Z,20.93
2022-08-19T17:22:29.951Z,20.91
2022-08-19T17:24:58.225Z,20.85
2022-08-19T17:27:32.131Z,20.81
2022-08-19T17:30:05.033Z,20.79
2022-08-19T17:32:35.598Z,20.77
2022-08-19T17:35:04.737Z,20.76
2022-08-19T17:37:33.011Z,20.80
2022-08-19T17:40:01.308Z,20.75
2022-08-19T17:42:28.199Z,20.79
2022-08-19T17:44:59.475Z,20.76
2022-08-19T17:47:28.326Z,20.78
2022-08-19T17:49:56.516Z,20.78
2022-08-19T17:52:23.411Z,20.75
2022-08-19T17:54:50.168Z,20.75
2022-08-19T17:57:17.146Z,20.75
2022-08-19T17:59:43.858Z,20.74
2022-08-19T18:02:12.034Z,20.70
2022-08-19T18:04:39.458Z,20.65
2022-08-19T18:07:06.694Z,20.63
2022-08-19T18:09:42.692Z,20.63
2022-08-19T18:12:18.249Z,20.58
2022-08-19T18:14:45.006Z,20.59
2022-08-19T18:17:17.430Z,20.58
2022-08-19T18:19:45.472Z,20.57
2022-08-19T18:22:35.413Z,20.52
2022-08-19T18:25:09.832Z,20.47
2022-08-19T18:27:36.921Z,20.47
2022-08-19T18:30:07.998Z,20.47
2022-08-19T18:32:38.765Z,20.41
2022-08-19T18:35:11.278Z,20.39
2022-08-19T18:37:44.514Z,20.38
2022-08-19T18:40:37.001Z,20.31
2022-08-19T18:43:11.134Z,20.29
2022-08-19T18:45:59.037Z,20.28
2022-08-19T18:48:45.124Z,20.26
2022-08-19T18:51:14.458Z,20.23
2022-08-19T18:53:43.829Z,20.25
2022-08-19T18:56:14.446Z,20.26
2022-08-19T18:58:43.346Z,20.26
2022-08-19T19:01:17.556Z,20.27
2022-08-19T19:03:50.366Z,20.24
2022-08-19T19:06:23.574Z,20.20
2022-08-19T19:08:52.748Z,20.20
2022-08-19T19:11:34.022Z,20.18
2022-08-19T19:14:03.594Z,20.14
2022-08-19T19:16:32.382Z,20.14
2022-08-19T19:18:59.724Z,20.12
2022-08-19T19:21:31.861Z,20.14
2022-08-19T19:24:01.739Z,20.12
2022-08-19T19:26:28.841Z,20.11
2022-08-19T19:28:55.750Z,20.13
2022-08-19T19:31:26.658Z,20.13
2022-08-19T19:33:56.813Z,20.15
2022-08-19T19:36:24.270Z,20.14
2022-08-19T19:38:51.393Z,20.11
2022-08-19T19:41:24.237Z,20.15
2022-08-19T19:44:29.337Z,20.17
2022-08-19T19:46:48.241Z,20.19
2022-08-19T19:49:15.109Z,20.17
2022-08-19T19:51:43.390Z,20.13
2022-08-19T19:54:18.669Z,20.11
2022-08-19T19:56:50.345Z,20.09
2022-08-19T19:59:18.239Z,20.08
2022-08-19T20:01:46.953Z,20.10
2022-08-19T20:04:16.914Z,20.04
2022-08-19T20:06:46.504Z,20.01
2022-08-19T20:09:19.538Z,19.98
2022-08-19T20:11:56.042Z,19.96
2022-08-19T20:14:26.756Z,20.00
2022-08-19T20:16:55.981Z,19.98
2022-08-19T20:19:31.160Z,20.01
2022-08-19T20:21:58.496Z,20.07
2022-08-19T20:24:32.538Z,20.06
2022-08-19T20:27:04.613Z,20.13
2022-08-19T20:29:39.208Z,20.10
2022-08-19T20:32:10.225Z,20.06
2022-08-19T20:34:37.595Z,20.01
2022-08-19T20:37:04.871Z,19.99
2022-08-19T20:39:32.009Z,19.97
2022-08-19T20:42:00.777Z,19.98
2022-08-19T20:44:27.682Z,20.00
2022-08-19T20:46:57.513Z,19.96
2022-08-19T20:49:27.130Z,19.95
2022-08-19T20:51:56.126Z,19.93
2022-08-19T20:54:24.181Z,19.94
2022-08-19T20:56:51.869Z,19.94
2022-08-19T20:59:20.436Z,19.91
2022-08-19T21:01:48.355Z,19.86
2022-08-19T21:04:15.509Z,19.84
2022-08-19T21:06:45.446Z,19.90
2022-08-19T21:09:13.801Z,19.90
2022-08-19T21:11:41.669Z,19.92
2022-08-19T21:14:08.491Z,19.92
2022-08-19T21:16:36.017Z,19.90
2022-08-19T21:19:04.562Z,19.95
2022-08-19T21:21:33.452Z,19.94
2022-08-19T21:24:01.256Z,19.95
2022-08-19T21:26:28.010Z,19.95
2022-08-19T21:28:54.926Z,19.94
2022-08-19T21:31:21.987Z,19.97
2022-08-19T21:33:48.963Z,19.98
2022-08-19T21:36:15.782Z,19.98
2022-08-19T21:38:42.629Z,19.97
2022-08-19T21:41:09.713Z,19.94
2022-08-19T21:43:38.417Z,19.94
2022-08-19T21:46:07.084Z,19.93
2022-08-19T21:48:35.351Z,19.86
2022-08-19T21:51:02.140Z,19.84
2022-08-19T21:53:31.408Z,19.84
2022-08-19T21:56:02.113Z,19.79
2022-08-19T21:58:30.626Z,19.77
2022-08-19T22:01:05.924Z,19.79
2022-08-19T22:03:34.228Z,19.83
2022-08-19T22:06:01.633Z,19.83
2022-08-19T22:08:28.504Z,19.85
2022-08-19T22:10:55.314Z,19.80
2022-08-19T22:13:22.176Z,19.76
2022-08-19T22:15:52.003Z,19.72
2022-08-19T22:18:18.961Z,19.72
2022-08-19T22:20:46.027Z,19.74
2022-08-19T22:23:14.003Z,19.75
2022-08-19T22:25:45.340Z,19.74
2022-08-19T22:28:18.758Z,19.74
2022-08-19T22:30:54.393Z,19.78
2022-08-19T22:33:22.449Z,19.75
2022-08-19T22:35:52.106Z,19.69
2022-08-19T22:38:19.483Z,19.67
2022-08-19T22:40:49.448Z,19.65
2022-08-19T22:43:22.369Z,19.64
2022-08-19T22:45:51.763Z,19.62
2022-08-19T22:48:23.525Z,19.60
2022-08-19T22:51:10.572Z,19.58
2022-08-19T22:53:42.035Z,19.55
2022-08-19T22:56:15.135Z,19.54
2022-08-19T22:58:43.710Z,19.54
2022-08-19T23:01:27.737Z,19.53
2022-08-19T23:03:59.497Z,19.51
2022-08-19T23:06:31.241Z,19.49
2022-08-19T23:09:07.273Z,19.51
2022-08-19T23:11:41.799Z,19.50
2022-08-19T23:14:11.212Z,19.49
2022-08-19T23:16:39.631Z,19.50
2022-08-19T23:19:10.278Z,19.52
2022-08-19T23:21:39.449Z,19.50
2022-08-19T23:24:07.326Z,19.48
2022-08-19T23:26:36.077Z,19.51
2022-08-19T23:29:23.802Z,19.51
2022-08-19T23:31:50.824Z,19.51
2022-08-19T23:34:18.054Z,19.49
2022-08-19T23:36:44.892Z,19.51
2022-08-19T23:39:11.619Z,19.51
2022-08-19T23:41:38.701Z,19.52
2022-08-19T23:44:06.582Z,19.51
2022-08-19T23:46:55.342Z,19.52
2022-08-19T23:49:25.159Z,19.50
2022-08-19T23:51:54.375Z,19.50
2022-08-19T23:54:22.110Z,19.48
2022-08-19T23:57:01.148Z,19.47
2022-08-19T23:59:27.857Z,19.47
